Time;durP1;ratioP1;P1;durP2;ratioP2;P2;SDS_P1;SDS_P2;PMS_P1;PMS_P2;Temp;Humidity;BMP_temperature;BMP_pressure;BME280_temperature;BME280_humidity;BME280_pressure;Samples;Min_cycle;Max_cycle;Signal;HPM_P1;HPM_P2
2022/07/31 00:00:38;;;;;;;;;;;;;;;;;;5054884;28;19982;-84
2022/07/31 00:03:04;;;;;;;;;;;;;;;;;;5052221;28;20370;-84
2022/07/31 00:05:30;;;;;;;;;;;;;;;;;;5037597;28;19925;-83
2022/07/31 00:07:55;;;;;;;;;;;;;;;;;;5052411;28;19932;-84
2022/07/31 00:10:21;;;;;;;;;;;;;;;;;;5042140;28;20291;-85
2022/07/31 00:12:47;;;;;;;;;;;;;;;;;;5041035;28;19985;-86
2022/07/31 00:15:13;;;;;;;;;;;;;;;;;;5052784;28;20079;-85
2022/07/31 00:17:39;;;;;;;;;;;;;;;;;;5041206;28;19928;-83
2022/07/31 00:20:05;;;;;;;;;;;;;;;;;;5045435;28;19932;-85
2022/07/31 00:22:31;;;;;;;;;;;;;;;;;;5038170;28;19924;-83
2022/07/31 00:24:57;;;;;;;;;;;;;;;;;;5052300;28;19931;-84
2022/07/31 00:27:23;;;;;;;;;;;;;;;;;;5053465;28;19979;-84
2022/07/31 00:29:49;;;;;;;;;;;;;;;;;;5047789;28;19960;-88
2022/07/31 00:32:15;;;;;;;;;;;;;;;;;;5038521;28;19924;-85
2022/07/31 00:34:41;;;;;;;;;;;;;;;;;;5039443;28;19981;-85
2022/07/31 00:37:07;;;;;;;;;;;;;;;;;;5033365;28;19932;-84
2022/07/31 00:39:33;;;;;;;;;;;;;;;;;;5053000;28;19925;-83
2022/07/31 00:41:59;;;;;;;;;;;;;;;;;;5031114;28;19928;-84
2022/07/31 00:44:25;;;;;;;;;;;;;;;;;;5057876;28;19971;-83
2022/07/31 00:46:50;;;;;;;;;;;;;;;;;;5054318;28;19931;-87
2022/07/31 00:49:17;;;;;;;;;;;;;;;;;;5056648;28;19925;-83
2022/07/31 00:51:43;;;;;;;;;;;;;;;;;;5031092;28;20398;-85
2022/07/31 00:54:09;;;;;;;;;;;;;;;;;;5040012;28;19925;-84
2022/07/31 00:56:35;;;;;;;;;;;;;;;;;;5034363;28;19933;-84
2022/07/31 00:59:01;;;;;;;;;;;;;;;;;;5035334;28;19932;-84
2022/07/31 01:01:27;;;;;;;;;;;;;;;;;;5047731;28;19936;-85
2022/07/31 01:03:53;;;;;;;;;;;;;;;;;;5059673;28;19931;-86
2022/07/31 01:06:19;;;;;;;;;;;;;;;;;;5058226;28;19925;-86
2022/07/31 01:08:45;;;;;;;;;;;;;;;;;;5039498;28;19931;-83
2022/07/31 01:11:11;;;;;;;;;;;;;;;;;;5035932;28;20386;-83
2022/07/31 01:13:37;;;;;;;;;;;;;;;;;;5038206;28;20260;-83
2022/07/31 01:16:03;;;;;;;;;;;;;;;;;;5061018;28;19969;-83
2022/07/31 01:18:29;;;;;;;;;;;;;;;;;;5040424;28;19924;-83
2022/07/31 01:20:55;;;;;;;;;;;;;;;;;;5054711;28;19925;-86
2022/07/31 01:23:21;;;;;;;;;;;;;;;;;;5049233;28;19976;-85
2022/07/31 01:25:47;;;;;;;;;;;;;;;;;;5030646;28;20299;-84
2022/07/31 01:28:14;;;;;;;;;;;;;;;;;;5039216;28;19928;-83
2022/07/31 01:30:39;;;;;;;;;;;;;;;;;;5060386;28;19925;-82
2022/07/31 01:33:05;;;;;;;;;;;;;;;;;;5037789;28;20265;-84
2022/07/31 01:35:31;;;;;;;;;;;;;;;;;;5051946;28;19924;-82
2022/07/31 01:37:57;;;;;;;;;;;;;;;;;;5052697;28;19924;-84
2022/07/31 01:40:23;;;;;;;;;;;;;;;;;;5061907;28;20329;-83
2022/07/31 01:42:49;;;;;;;;;;;;;;;;;;5052033;28;20678;-85
2022/07/31 01:45:15;;;;;;;;;;;;;;;;;;5050295;28;20394;-85
2022/07/31 01:47:41;;;;;;;;;;;;;;;;;;5029271;28;20307;-84
2022/07/31 01:50:07;;;;;;;;;;;;;;;;;;5055652;28;20032;-84
2022/07/31 01:52:33;;;;;;;;;;;;;;;;;;5056232;28;19932;-83
2022/07/31 01:54:59;;;;;;;;;;;;;;;;;;5037687;28;19928;-85
2022/07/31 01:57:25;;;;;;;;;;;;;;;;;;5052076;28;19936;-84
2022/07/31 01:59:51;;;;;;;;;;;;;;;;;;5037446;28;19924;-84
2022/07/31 02:02:17;;;;;;;;;;;;;;;;;;5051777;28;19925;-84
2022/07/31 02:04:43;;;;;;;;;;;;;;;;;;5058897;28;19973;-83
2022/07/31 02:07:09;;;;;;;;;;;;;;;;;;5049245;28;19928;-83
2022/07/31 02:09:35;;;;;;;;;;;;;;;;;;5037648;28;19925;-84
2022/07/31 02:12:01;;;;;;;;;;;;;;;;;;5057300;28;20334;-84
2022/07/31 02:14:28;;;;;;;;;;;;;;;;;;5061215;28;20013;-84
2022/07/31 02:16:54;;;;;;;;;;;;;;;;;;5045956;28;19948;-86
2022/07/31 02:19:20;;;;;;;;;;;;;;;;;;5048576;28;19975;-85
2022/07/31 02:21:46;;;;;;;;;;;;;;;;;;5052452;28;19925;-84
2022/07/31 02:24:11;;;;;;;;;;;;;;;;;;5039187;28;19931;-84
2022/07/31 02:26:37;;;;;;;;;;;;;;;;;;5053698;28;19946;-82
2022/07/31 02:29:03;;;;;;;;;;;;;;;;;;5043909;28;19924;-83
2022/07/31 02:31:29;;;;;;;;;;;;;;;;;;5055505;28;19925;-82
2022/07/31 02:33:55;;;;;;;;;;;;;;;;;;5062729;28;20085;-84
2022/07/31 02:36:21;;;;;;;;;;;;;;;;;;5058822;28;19947;-84
2022/07/31 02:38:47;;;;;;;;;;;;;;;;;;5054408;28;20331;-83
2022/07/31 02:41:13;;;;;;;;;;;;;;;;;;5060882;28;20311;-83
2022/07/31 02:43:39;;;;;;;;;;;;;;;;;;5053906;28;19999;-83
2022/07/31 02:46:05;;;;;;;;;;;;;;;;;;5063018;28;19946;-84
2022/07/31 02:48:31;;;;;;;;;;;;;;;;;;5063902;28;19928;-83
2022/07/31 02:50:57;;;;;;;;;;;;;;;;;;5041731;28;19970;-83
2022/07/31 02:53:23;;;;;;;;;;;;;;;;;;5050434;28;19932;-83
2022/07/31 02:55:49;;;;;;;;;;;;;;;;;;5060623;28;19935;-84
2022/07/31 02:58:15;;;;;;;;;;;;;;;;;;5039946;28;19932;-85
2022/07/31 03:00:41;;;;;;;;;;;;;;;;;;5036205;28;19925;-82
2022/07/31 03:03:06;;;;;;;;;;;;;;;;;;5055488;28;19979;-83
2022/07/31 03:05:32;;;;;;;;;;;;;;;;;;5059597;28;19986;-87
2022/07/31 03:07:58;;;;;;;;;;;;;;;;;;5056567;28;19946;-83
2022/07/31 03:10:24;;;;;;;;;;;;;;;;;;5039156;28;19928;-84
2022/07/31 03:12:50;;;;;;;;;;;;;;;;;;5050928;28;19925;-83
2022/07/31 03:15:16;;;;;;;;;;;;;;;;;;5040667;28;19986;-85
2022/07/31 03:17:42;;;;;;;;;;;;;;;;;;5039573;28;20054;-83
2022/07/31 03:20:08;;;;;;;;;;;;;;;;;;5054697;28;20426;-83
2022/07/31 03:22:34;;;;;;;;;;;;;;;;;;5054457;28;19925;-83
2022/07/31 03:25:00;;;;;;;;;;;;;;;;;;5055910;28;19925;-83
2022/07/31 03:27:26;;;;;;;;;;;;;;;;;;5052829;28;20371;-84
2022/07/31 03:29:53;;;;;;;;;;;;;;;;;;5054162;28;19987;-83
2022/07/31 03:32:19;;;;;;;;;;;;;;;;;;5052342;28;19966;-84
2022/07/31 03:34:45;;;;;;;;;;;;;;;;;;5036120;28;19924;-86
2022/07/31 03:37:11;;;;;;;;;;;;;;;;;;5044019;28;19932;-85
2022/07/31 03:39:37;;;;;;;;;;;;;;;;;;5045501;28;19925;-85
2022/07/31 03:42:03;;;;;;;;;;;;;;;;;;5040988;28;20028;-85
2022/07/31 03:44:29;;;;;;;;;;;;;;;;;;5040969;28;19936;-85
2022/07/31 03:46:55;;;;;;;;;;;;;;;;;;5041068;28;19929;-86
2022/07/31 03:49:20;;;;;;;;;;;;;;;;;;5048737;28;19925;-86
2022/07/31 03:51:46;;;;;;;;;;;;;;;;;;5046190;28;19929;-85
2022/07/31 03:54:12;;;;;;;;;;;;;;;;;;5050459;28;20383;-86
2022/07/31 03:56:38;;;;;;;;;;;;;;;;;;5037067;28;19970;-87
2022/07/31 03:59:04;;;;;;;;;;;;;;;;;;5050662;28;19924;-87
2022/07/31 04:01:30;;;;;;;;;;;;;;;;;;5038359;28;20024;-85
2022/07/31 04:03:56;;;;;;;;;;;;;;;;;;5051473;28;19953;-85
2022/07/31 04:06:22;;;;;;;;;;;;;;;;;;5058525;28;19933;-86
2022/07/31 04:08:48;;;;;;;;;;;;;;;;;;5042737;28;19924;-86
2022/07/31 04:11:14;;;;;;;;;;;;;;;;;;5041503;28;19925;-87
2022/07/31 04:13:40;;;;;;;;;;;;;;;;;;5055067;28;19932;-85
2022/07/31 04:16:06;;;;;;;;;;;;;;;;;;5038395;28;19986;-86
2022/07/31 04:18:33;;;;;;;;;;;;;;;;;;5042207;28;19994;-86
2022/07/31 04:20:59;;;;;;;;;;;;;;;;;;5039336;28;20295;-86
2022/07/31 04:23:25;;;;;;;;;;;;;;;;;;5055677;28;19932;-87
2022/07/31 04:25:50;;;;;;;;;;;;;;;;;;5048660;28;19929;-85
2022/07/31 04:28:16;;;;;;;;;;;;;;;;;;5058266;28;19924;-88
2022/07/31 04:30:42;;;;;;;;;;;;;;;;;;5051779;28;19936;-86
2022/07/31 04:33:08;;;;;;;;;;;;;;;;;;5042051;28;20367;-86
2022/07/31 04:35:34;;;;;;;;;;;;;;;;;;5041385;28;20682;-85
2022/07/31 04:38:00;;;;;;;;;;;;;;;;;;5051953;28;20267;-84
2022/07/31 04:40:26;;;;;;;;;;;;;;;;;;5030916;28;19928;-83
2022/07/31 04:42:52;;;;;;;;;;;;;;;;;;5051804;28;20069;-84
2022/07/31 04:45:18;;;;;;;;;;;;;;;;;;5051455;28;19925;-84
2022/07/31 04:47:44;;;;;;;;;;;;;;;;;;5035815;28;19929;-84
2022/07/31 04:50:10;;;;;;;;;;;;;;;;;;5050546;28;19929;-85
2022/07/31 04:52:36;;;;;;;;;;;;;;;;;;5033086;28;19940;-84
2022/07/31 04:55:02;;;;;;;;;;;;;;;;;;5032409;28;19924;-84
2022/07/31 04:57:28;;;;;;;;;;;;;;;;;;5026322;28;19964;-85
2022/07/31 04:59:54;;;;;;;;;;;;;;;;;;5049083;28;19928;-85
2022/07/31 05:02:20;;;;;;;;;;;;;;;;;;5043044;28;19932;-85
2022/07/31 05:04:46;;;;;;;;;;;;;;;;;;5059511;28;19925;-84
2022/07/31 05:07:12;;;;;;;;;;;;;;;;;;5037546;28;19925;-84
2022/07/31 05:09:38;;;;;;;;;;;;;;;;;;5051798;28;19935;-85
2022/07/31 05:12:04;;;;;;;;;;;;;;;;;;5055298;28;20046;-85
2022/07/31 05:14:30;;;;;;;;;;;;;;;;;;5043985;28;19931;-86
2022/07/31 05:16:55;;;;;;;;;;;;;;;;;;5040878;28;19931;-86
2022/07/31 05:19:21;;;;;;;;;;;;;;;;;;5035330;28;20070;-87
2022/07/31 05:21:48;;;;;;;;;;;;;;;;;;5052500;28;19924;-87
2022/07/31 05:24:14;;;;;;;;;;;;;;;;;;5039551;28;19924;-86
2022/07/31 05:26:39;;;;;;;;;;;;;;;;;;5031279;28;19935;-85
2022/07/31 05:29:06;;;;;;;;;;;;;;;;;;5054337;28;20466;-87
2022/07/31 05:31:32;;;;;;;;;;;;;;;;;;5044469;28;19986;-85
2022/07/31 05:33:58;;;;;;;;;;;;;;;;;;5036726;28;19960;-85
2022/07/31 05:36:24;;;;;;;;;;;;;;;;;;5030371;28;19929;-85
2022/07/31 05:38:50;;;;;;;;;;;;;;;;;;5059500;28;20383;-86
2022/07/31 05:41:16;;;;;;;;;;;;;;;;;;5052039;28;19933;-86
2022/07/31 05:43:41;;;;;;;;;;;;;;;;;;5037396;28;19932;-84
2022/07/31 05:46:07;;;;;;;;;;;;;;;;;;5053056;28;19925;-86
2022/07/31 05:48:33;;;;;;;;;;;;;;;;;;5062179;28;19924;-85
2022/07/31 05:50:59;;;;;;;;;;;;;;;;;;5043821;28;20007;-86
2022/07/31 05:53:25;;;;;;;;;;;;;;;;;;5036733;28;20390;-86
2022/07/31 05:55:51;;;;;;;;;;;;;;;;;;5049877;28;20363;-87
2022/07/31 05:58:17;;;;;;;;;;;;;;;;;;5047393;28;19928;-88
2022/07/31 06:00:43;;;;;;;;;;;;;;;;;;5031316;28;20326;-87
2022/07/31 06:03:11;;;;;;;;;;;;;;;;;;5026241;28;19932;-85
2022/07/31 06:05:37;;;;;;;;;;;;;;;;;;5043810;28;19933;-85
2022/07/31 06:08:03;;;;;;;;;;;;;;;;;;5057732;28;19952;-86
2022/07/31 06:10:29;;;;;;;;;;;;;;;;;;5040316;28;20083;-86
2022/07/31 06:12:55;;;;;;;;;;;;;;;;;;5041576;28;19925;-86
2022/07/31 06:15:20;;;;;;;;;;;;;;;;;;5051688;28;19925;-87
2022/07/31 06:17:46;;;;;;;;;;;;;;;;;;5035291;28;19964;-83
2022/07/31 06:20:12;;;;;;;;;;;;;;;;;;5041428;28;20055;-82
2022/07/31 06:22:38;;;;;;;;;;;;;;;;;;5044771;28;19924;-81
2022/07/31 06:25:04;;;;;;;;;;;;;;;;;;5048585;28;19931;-86
2022/07/31 06:27:30;;;;;;;;;;;;;;;;;;5029739;28;20023;-83
2022/07/31 06:29:56;;;;;;;;;;;;;;;;;;5054739;28;19924;-84
2022/07/31 06:32:22;;;;;;;;;;;;;;;;;;5064172;28;19937;-85
2022/07/31 06:34:48;;;;;;;;;;;;;;;;;;5042683;28;19978;-84
2022/07/31 06:37:14;;;;;;;;;;;;;;;;;;5058548;28;19998;-84
2022/07/31 06:39:40;;;;;;;;;;;;;;;;;;5040203;28;19971;-86
2022/07/31 06:42:06;;;;;;;;;;;;;;;;;;5054498;28;19940;-88
2022/07/31 06:44:32;;;;;;;;;;;;;;;;;;5047508;28;19935;-93
2022/07/31 06:46:58;;;;;;;;;;;;;;;;;;5048318;28;20011;-81
2022/07/31 06:49:24;;;;;;;;;;;;;;;;;;5042303;28;19979;-85
2022/07/31 06:51:50;;;;;;;;;;;;;;;;;;5050441;28;20356;-84
2022/07/31 06:54:16;;;;;;;;;;;;;;;;;;5043037;28;19975;-85
2022/07/31 06:56:42;;;;;;;;;;;;;;;;;;5045765;28;19933;-84
2022/07/31 06:59:08;;;;;;;;;;;;;;;;;;5037813;28;19931;-79
2022/07/31 07:01:34;;;;;;;;;;;;;;;;;;5042538;28;19932;-83
2022/07/31 07:04:00;;;;;;;;;;;;;;;;;;5029055;28;19933;-81
2022/07/31 07:06:26;;;;;;;;;;;;;;;;;;5041654;28;20019;-81
2022/07/31 07:08:52;;;;;;;;;;;;;;;;;;5056186;28;19936;-82
2022/07/31 07:11:18;;;;;;;;;;;;;;;;;;5059929;28;19924;-83
2022/07/31 07:13:44;;;;;;;;;;;;;;;;;;5055434;28;20058;-83
2022/07/31 07:16:10;;;;;;;;;;;;;;;;;;5030882;28;20017;-81
2022/07/31 07:18:36;;;;;;;;;;;;;;;;;;5041283;28;20007;-87
2022/07/31 07:21:02;;;;;;;;;;;;;;;;;;5054170;28;19932;-86
2022/07/31 07:23:28;;;;;;;;;;;;;;;;;;5059107;28;19957;-80
2022/07/31 07:25:53;;;;;;;;;;;;;;;;;;5049126;28;20058;-84
2022/07/31 07:28:19;;;;;;;;;;;;;;;;;;5042438;28;19924;-83
2022/07/31 07:30:45;;;;;;;;;;;;;;;;;;5049281;28;19925;-82
2022/07/31 07:33:11;;;;;;;;;;;;;;;;;;5052116;28;19932;-82
2022/07/31 07:35:38;;;;;;;;;;;;;;;;;;5045492;28;20019;-82
2022/07/31 07:38:04;;;;;;;;;;;;;;;;;;5033442;28;20026;-85
2022/07/31 07:40:30;;;;;;;;;;;;;;;;;;5033272;28;19925;-88
2022/07/31 07:42:56;;;;;;;;;;;;;;;;;;5039658;28;19929;-82
2022/07/31 07:45:22;;;;;;;;;;;;;;;;;;5033138;28;19964;-83
2022/07/31 07:47:48;;;;;;;;;;;;;;;;;;5047174;28;19932;-82
2022/07/31 07:50:14;;;;;;;;;;;;;;;;;;5045114;28;19925;-83
2022/07/31 07:52:40;;;;;;;;;;;;;;;;;;5048300;28;20020;-83
2022/07/31 07:55:07;;;;;;;;;;;;;;;;;;5052161;28;20011;-83
2022/07/31 07:57:35;;;;;;;;;;;;;;;;;;5035232;28;20406;-84
2022/07/31 08:00:02;;;;;;;;;;;;;;;;;;5032869;28;19995;-83
2022/07/31 08:02:28;;;;;;;;;;;;;;;;;;5032556;28;19925;-83
2022/07/31 08:04:54;;;;;;;;;;;;;;;;;;5031947;28;19979;-82
2022/07/31 08:07:19;;;;;;;;;;;;;;;;;;5033035;28;19971;-83
2022/07/31 08:09:45;;;;;;;;;;;;;;;;;;5041154;28;19924;-83
2022/07/31 08:12:11;;;;;;;;;;;;;;;;;;5019791;28;19925;-83
2022/07/31 08:14:37;;;;;;;;;;;;;;;;;;5032145;28;19925;-85
2022/07/31 08:17:03;;;;;;;;;;;;;;;;;;5044322;28;19982;-82
2022/07/31 08:19:29;;;;;;;;;;;;;;;;;;5032844;28;19925;-85
2022/07/31 08:21:55;;;;;;;;;;;;;;;;;;5032166;28;19995;-83
2022/07/31 08:24:21;;;;;;;;;;;;;;;;;;5044899;28;19924;-83
2022/07/31 08:29:32;;;;;;;;;;;;;;;;;;5032310;28;19932;-82
2022/07/31 08:31:58;;;;;;;;;;;;;;;;;;5032367;28;19929;-82
2022/07/31 08:34:24;;;;;;;;;;;;;;;;;;5032090;28;19929;-82
2022/07/31 08:36:50;;;;;;;;;;;;;;;;;;5048793;28;19924;-83
2022/07/31 08:39:16;;;;;;;;;;;;;;;;;;5032073;28;19925;-84
2022/07/31 08:41:42;;;;;;;;;;;;;;;;;;5039419;28;19932;-83
2022/07/31 08:44:07;;;;;;;;;;;;;;;;;;5024281;28;20019;-83
2022/07/31 08:46:33;;;;;;;;;;;;;;;;;;5038966;28;19932;-82
2022/07/31 08:48:59;;;;;;;;;;;;;;;;;;5040396;28;20391;-82
2022/07/31 08:51:25;;;;;;;;;;;;;;;;;;5032026;28;20334;-82
2022/07/31 08:53:51;;;;;;;;;;;;;;;;;;5040422;28;20240;-82
2022/07/31 08:56:17;;;;;;;;;;;;;;;;;;5039490;28;19925;-82
2022/07/31 08:58:43;;;;;;;;;;;;;;;;;;5032160;28;19960;-82
2022/07/31 09:01:09;;;;;;;;;;;;;;;;;;5032054;28;19960;-82
2022/07/31 09:03:35;;;;;;;;;;;;;;;;;;5031988;28;19933;-81
2022/07/31 09:06:01;;;;;;;;;;;;;;;;;;5043604;28;19954;-81
2022/07/31 09:08:27;;;;;;;;;;;;;;;;;;5052928;28;19925;-81
2022/07/31 09:10:53;;;;;;;;;;;;;;;;;;5036936;28;19982;-81
2022/07/31 09:13:19;;;;;;;;;;;;;;;;;;5051708;28;20260;-80
2022/07/31 09:15:45;;;;;;;;;;;;;;;;;;5040046;28;19925;-81
2022/07/31 09:18:11;;;;;;;;;;;;;;;;;;5040605;28;19974;-80
2022/07/31 09:20:39;;;;;;;;;;;;;;;;;;5040702;28;19978;-80
2022/07/31 09:26:09;;;;;;;;;;;;;;;;;;5057772;28;19935;-79
2022/07/31 09:28:35;;;;;;;;;;;;;;;;;;5056971;28;20359;-80
2022/07/31 09:31:01;;;;;;;;;;;;;;;;;;5056897;28;19928;-80
2022/07/31 09:33:28;;;;;;;;;;;;;;;;;;5042172;28;19932;-80
2022/07/31 09:35:54;;;;;;;;;;;;;;;;;;5036302;28;19932;-80
2022/07/31 09:38:20;;;;;;;;;;;;;;;;;;5047248;28;19924;-80
2022/07/31 09:40:46;;;;;;;;;;;;;;;;;;5040801;28;20318;-81
2022/07/31 09:43:12;;;;;;;;;;;;;;;;;;5048525;28;19925;-80
2022/07/31 09:45:37;;;;;;;;;;;;;;;;;;5041519;28;19925;-81
2022/07/31 09:48:03;;;;;;;;;;;;;;;;;;5035405;28;19929;-81
2022/07/31 09:50:29;;;;;;;;;;;;;;;;;;5036003;28;19929;-80
2022/07/31 09:52:55;;;;;;;;;;;;;;;;;;5036344;28;19968;-79
2022/07/31 09:58:35;;;;;;;;;;;;;;;;;;5050196;28;20423;-80
2022/07/31 10:01:01;;;;;;;;;;;;;;;;;;5057144;28;19968;-79
2022/07/31 10:03:27;;;;;;;;;;;;;;;;;;5038621;28;20252;-80
2022/07/31 10:05:54;;;;;;;;;;;;;;;;;;5048987;28;19972;-81
2022/07/31 10:08:20;;;;;;;;;;;;;;;;;;5035331;28;19932;-81
2022/07/31 10:10:46;;;;;;;;;;;;;;;;;;5035294;28;19925;-88
2022/07/31 10:13:14;;;;;;;;;;;;;;;;;;5036533;28;19951;-80
2022/07/31 10:15:40;;;;;;;;;;;;;;;;;;5018813;28;19992;-81
2022/07/31 10:18:07;;;;;;;;;;;;;;;;;;5052322;28;20015;-82
2022/07/31 10:20:33;;;;;;;;;;;;;;;;;;5055468;28;19951;-80
2022/07/31 10:22:59;;;;;;;;;;;;;;;;;;5048479;28;19925;-79
2022/07/31 10:25:25;;;;;;;;;;;;;;;;;;5036984;28;19973;-80
2022/07/31 10:27:52;;;;;;;;;;;;;;;;;;5036768;28;20008;-80
2022/07/31 10:30:18;;;;;;;;;;;;;;;;;;5035817;28;19929;-80
2022/07/31 10:32:44;;;;;;;;;;;;;;;;;;5037380;28;19925;-79
2022/07/31 10:35:10;;;;;;;;;;;;;;;;;;5020254;28;20394;-79
2022/07/31 10:37:42;;;;;;;;;;;;;;;;;;5054633;28;19924;-80
2022/07/31 10:40:08;;;;;;;;;;;;;;;;;;5034197;28;20089;-79
2022/07/31 10:42:34;;;;;;;;;;;;;;;;;;5043382;28;19925;-78
2022/07/31 10:45:00;;;;;;;;;;;;;;;;;;5035227;28;19925;-78
2022/07/31 10:47:26;;;;;;;;;;;;;;;;;;5034617;28;19925;-79
2022/07/31 10:49:52;;;;;;;;;;;;;;;;;;5052579;28;20351;-79
2022/07/31 10:52:18;;;;;;;;;;;;;;;;;;5054886;28;19924;-79
2022/07/31 10:54:44;;;;;;;;;;;;;;;;;;5040736;28;19925;-79
2022/07/31 10:57:16;;;;;;;;;;;;;;;;;;5035070;28;19929;-80
2022/07/31 10:59:42;;;;;;;;;;;;;;;;;;5035490;28;20287;-79
2022/07/31 11:02:08;;;;;;;;;;;;;;;;;;5035430;28;20291;-80
2022/07/31 11:07:38;;;;;;;;;;;;;;;;;;5035863;28;19947;-80
2022/07/31 11:10:12;;;;;;;;;;;;;;;;;;5035268;28;20320;-80
2022/07/31 11:12:38;;;;;;;;;;;;;;;;;;5034951;28;19929;-80
2022/07/31 11:15:04;;;;;;;;;;;;;;;;;;5022078;28;20282;-81
2022/07/31 11:17:30;;;;;;;;;;;;;;;;;;5054398;28;20335;-81
2022/07/31 11:19:56;;;;;;;;;;;;;;;;;;5054715;28;19924;-80
2022/07/31 11:22:22;;;;;;;;;;;;;;;;;;5055136;28;20266;-80
2022/07/31 11:24:49;;;;;;;;;;;;;;;;;;5055648;28;19925;-80
2022/07/31 11:27:15;;;;;;;;;;;;;;;;;;5054545;28;20007;-79
2022/07/31 11:29:41;;;;;;;;;;;;;;;;;;5054649;28;19975;-80
2022/07/31 11:32:07;;;;;;;;;;;;;;;;;;5055501;28;19931;-79
2022/07/31 11:34:33;;;;;;;;;;;;;;;;;;5055261;28;19968;-80
2022/07/31 11:36:59;;;;;;;;;;;;;;;;;;5054466;28;19990;-79
2022/07/31 11:39:27;;;;;;;;;;;;;;;;;;5055345;28;20039;-80
2022/07/31 11:41:53;;;;;;;;;;;;;;;;;;5046552;28;19979;-88
2022/07/31 11:44:19;;;;;;;;;;;;;;;;;;5033875;28;19925;-80
2022/07/31 11:46:45;;;;;;;;;;;;;;;;;;5034057;28;19925;-80
2022/07/31 11:49:11;;;;;;;;;;;;;;;;;;5034402;28;19979;-79
2022/07/31 11:51:37;;;;;;;;;;;;;;;;;;5035010;28;19933;-80
2022/07/31 12:00:33;;;;;;;;;;;;;;;;;;5032064;28;19948;-80
2022/07/31 12:02:59;;;;;;;;;;;;;;;;;;5041854;28;19925;-79
2022/07/31 12:05:25;;;;;;;;;;;;;;;;;;5053800;28;20351;-80
2022/07/31 12:07:51;;;;;;;;;;;;;;;;;;5054745;28;19964;-80
2022/07/31 12:10:17;;;;;;;;;;;;;;;;;;5054827;28;19925;-80
2022/07/31 12:12:43;;;;;;;;;;;;;;;;;;5056855;28;19928;-81
2022/07/31 12:15:09;;;;;;;;;;;;;;;;;;5038232;28;19928;-80
2022/07/31 12:17:35;;;;;;;;;;;;;;;;;;5054742;28;19924;-81
2022/07/31 12:20:01;;;;;;;;;;;;;;;;;;5074168;28;19924;-81
2022/07/31 12:22:27;;;;;;;;;;;;;;;;;;5072739;28;19946;-80
2022/07/31 12:24:53;;;;;;;;;;;;;;;;;;5051181;28;19929;-79
2022/07/31 12:27:19;;;;;;;;;;;;;;;;;;5036322;28;19931;-81
2022/07/31 12:29:45;;;;;;;;;;;;;;;;;;5060335;28;19975;-80
2022/07/31 12:32:11;;;;;;;;;;;;;;;;;;5050779;28;19924;-81
2022/07/31 12:34:37;;;;;;;;;;;;;;;;;;5060193;28;19928;-80
2022/07/31 12:37:03;;;;;;;;;;;;;;;;;;5055635;28;20378;-80
2022/07/31 12:39:29;;;;;;;;;;;;;;;;;;5069287;28;19925;-80
2022/07/31 12:41:55;;;;;;;;;;;;;;;;;;5063333;28;20415;-80
2022/07/31 12:44:20;;;;;;;;;;;;;;;;;;5048661;28;19925;-81
2022/07/31 12:46:46;;;;;;;;;;;;;;;;;;5044494;28;19935;-80
2022/07/31 12:49:12;;;;;;;;;;;;;;;;;;5044677;28;19932;-80
2022/07/31 12:51:38;;;;;;;;;;;;;;;;;;5035392;28;19932;-82
2022/07/31 12:54:04;;;;;;;;;;;;;;;;;;5035890;28;19925;-82
2022/07/31 12:56:30;;;;;;;;;;;;;;;;;;5036198;28;19925;-82
2022/07/31 12:58:56;;;;;;;;;;;;;;;;;;5035541;28;19925;-80
2022/07/31 13:01:22;;;;;;;;;;;;;;;;;;5039550;28;19929;-81
2022/07/31 13:03:49;;;;;;;;;;;;;;;;;;5043978;28;19925;-81
2022/07/31 13:06:15;;;;;;;;;;;;;;;;;;5069838;28;19925;-82
2022/07/31 13:08:42;;;;;;;;;;;;;;;;;;5063363;28;20005;-82
2022/07/31 13:11:08;;;;;;;;;;;;;;;;;;5034763;28;20291;-82
2022/07/31 13:13:34;;;;;;;;;;;;;;;;;;5035037;28;19931;-82
2022/07/31 13:16:00;;;;;;;;;;;;;;;;;;5035197;28;19925;-82
2022/07/31 13:18:28;;;;;;;;;;;;;;;;;;5035621;28;19968;-81
2022/07/31 13:20:54;;;;;;;;;;;;;;;;;;5024403;28;19960;-81
2022/07/31 13:23:20;;;;;;;;;;;;;;;;;;5048041;28;20016;-81
2022/07/31 13:25:46;;;;;;;;;;;;;;;;;;5035187;28;20015;-82
2022/07/31 13:28:12;;;;;;;;;;;;;;;;;;5055192;28;20273;-81
2022/07/31 13:30:38;;;;;;;;;;;;;;;;;;5038168;28;20279;-83
2022/07/31 13:33:04;;;;;;;;;;;;;;;;;;5052439;28;19925;-83
2022/07/31 13:35:30;;;;;;;;;;;;;;;;;;5049006;28;19924;-82
2022/07/31 13:37:56;;;;;;;;;;;;;;;;;;5035221;28;19967;-81
2022/07/31 13:43:07;;;;;;;;;;;;;;;;;;5035632;28;19925;-82
2022/07/31 13:45:32;;;;;;;;;;;;;;;;;;5034783;28;19920;-82
2022/07/31 13:47:58;;;;;;;;;;;;;;;;;;5034656;28;19928;-81
2022/07/31 13:50:24;;;;;;;;;;;;;;;;;;5052493;28;20386;-82
2022/07/31 13:52:50;;;;;;;;;;;;;;;;;;5034931;28;20363;-81
2022/07/31 13:55:16;;;;;;;;;;;;;;;;;;5052537;28;20383;-83
2022/07/31 13:57:42;;;;;;;;;;;;;;;;;;5035216;28;20283;-81
2022/07/31 14:00:08;;;;;;;;;;;;;;;;;;5044769;28;20349;-82
2022/07/31 14:02:34;;;;;;;;;;;;;;;;;;5053892;28;19991;-85
2022/07/31 14:05:00;;;;;;;;;;;;;;;;;;5055908;28;20326;-81
2022/07/31 14:07:26;;;;;;;;;;;;;;;;;;5038020;28;19924;-81
2022/07/31 14:09:52;;;;;;;;;;;;;;;;;;5026819;28;19925;-80
2022/07/31 14:12:18;;;;;;;;;;;;;;;;;;5037937;28;19932;-82
2022/07/31 14:14:44;;;;;;;;;;;;;;;;;;5071600;28;19925;-81
2022/07/31 14:17:10;;;;;;;;;;;;;;;;;;5038029;28;19931;-80
2022/07/31 14:19:36;;;;;;;;;;;;;;;;;;5045205;28;20356;-80
2022/07/31 14:22:01;;;;;;;;;;;;;;;;;;5068242;28;19972;-80
2022/07/31 14:24:27;;;;;;;;;;;;;;;;;;5055299;28;19925;-80
2022/07/31 14:26:53;;;;;;;;;;;;;;;;;;5041739;28;19928;-81
2022/07/31 14:29:19;;;;;;;;;;;;;;;;;;5041921;28;19929;-81
2022/07/31 14:31:45;;;;;;;;;;;;;;;;;;5046853;28;19924;-81
2022/07/31 14:34:11;;;;;;;;;;;;;;;;;;5066279;28;20046;-82
2022/07/31 14:36:37;;;;;;;;;;;;;;;;;;5038345;28;20054;-82
2022/07/31 14:39:03;;;;;;;;;;;;;;;;;;5038646;28;20019;-81
2022/07/31 14:41:29;;;;;;;;;;;;;;;;;;5044207;28;20107;-82
2022/07/31 14:43:55;;;;;;;;;;;;;;;;;;5053295;28;19924;-81
2022/07/31 14:46:21;;;;;;;;;;;;;;;;;;5065941;28;20337;-81
2022/07/31 14:48:47;;;;;;;;;;;;;;;;;;5042584;28;20322;-82
2022/07/31 14:51:13;;;;;;;;;;;;;;;;;;5036938;28;19933;-81
2022/07/31 14:53:39;;;;;;;;;;;;;;;;;;5054543;28;19972;-82
2022/07/31 14:56:05;;;;;;;;;;;;;;;;;;5052680;28;19925;-83
2022/07/31 14:58:31;;;;;;;;;;;;;;;;;;5047857;28;19975;-82
2022/07/31 15:00:57;;;;;;;;;;;;;;;;;;5037481;28;19925;-80
2022/07/31 15:03:23;;;;;;;;;;;;;;;;;;5054299;28;19924;-81
2022/07/31 15:05:48;;;;;;;;;;;;;;;;;;5054192;28;19924;-81
2022/07/31 15:08:14;;;;;;;;;;;;;;;;;;5036862;28;19925;-81
2022/07/31 15:10:40;;;;;;;;;;;;;;;;;;5036634;28;20299;-81
2022/07/31 15:13:06;;;;;;;;;;;;;;;;;;5036878;28;20341;-81
2022/07/31 15:15:32;;;;;;;;;;;;;;;;;;5036486;28;19929;-81
2022/07/31 15:17:59;;;;;;;;;;;;;;;;;;5036007;28;19947;-82
2022/07/31 15:20:25;;;;;;;;;;;;;;;;;;5036123;28;19925;-80
2022/07/31 15:22:51;;;;;;;;;;;;;;;;;;5036765;28;19967;-82
2022/07/31 15:25:17;;;;;;;;;;;;;;;;;;5036259;28;19925;-81
2022/07/31 15:27:43;;;;;;;;;;;;;;;;;;5053999;28;20135;-81
2022/07/31 15:30:08;;;;;;;;;;;;;;;;;;5036607;28;19929;-81
2022/07/31 15:32:34;;;;;;;;;;;;;;;;;;5036026;28;20007;-80
2022/07/31 15:35:00;;;;;;;;;;;;;;;;;;5040267;28;19924;-80
2022/07/31 15:37:27;;;;;;;;;;;;;;;;;;5054819;28;19931;-80
2022/07/31 15:39:52;;;;;;;;;;;;;;;;;;5048556;28;19924;-81
2022/07/31 15:42:18;;;;;;;;;;;;;;;;;;5035568;28;19990;-80
2022/07/31 15:44:44;;;;;;;;;;;;;;;;;;5054546;28;19924;-80
2022/07/31 15:47:11;;;;;;;;;;;;;;;;;;5054495;28;19925;-84
2022/07/31 15:49:37;;;;;;;;;;;;;;;;;;5053955;28;20366;-81
2022/07/31 15:52:03;;;;;;;;;;;;;;;;;;5038240;28;19929;-81
2022/07/31 15:54:29;;;;;;;;;;;;;;;;;;5035818;28;19925;-80
2022/07/31 15:56:55;;;;;;;;;;;;;;;;;;5043125;28;19978;-80
2022/07/31 15:59:23;;;;;;;;;;;;;;;;;;5042206;28;20378;-81
2022/07/31 16:01:49;;;;;;;;;;;;;;;;;;5036155;28;19933;-80
2022/07/31 16:04:15;;;;;;;;;;;;;;;;;;5053380;28;19924;-85
2022/07/31 16:06:42;;;;;;;;;;;;;;;;;;5035726;28;19927;-81
2022/07/31 16:09:08;;;;;;;;;;;;;;;;;;5053745;28;20043;-81
2022/07/31 16:11:34;;;;;;;;;;;;;;;;;;5077507;28;19929;-81
2022/07/31 16:14:00;;;;;;;;;;;;;;;;;;5066712;28;19924;-80
2022/07/31 16:16:27;;;;;;;;;;;;;;;;;;5035255;28;20007;-86
2022/07/31 16:18:53;;;;;;;;;;;;;;;;;;5035976;28;19928;-80
2022/07/31 16:21:19;;;;;;;;;;;;;;;;;;5048280;28;20294;-81
2022/07/31 16:23:45;;;;;;;;;;;;;;;;;;5040128;28;19925;-80
2022/07/31 16:26:12;;;;;;;;;;;;;;;;;;5035324;28;19925;-80
2022/07/31 16:28:38;;;;;;;;;;;;;;;;;;5035755;28;20323;-80
2022/07/31 16:31:04;;;;;;;;;;;;;;;;;;5035909;28;20386;-85
2022/07/31 16:33:30;;;;;;;;;;;;;;;;;;5053143;28;20362;-80
2022/07/31 16:35:56;;;;;;;;;;;;;;;;;;5053602;28;20020;-87
2022/07/31 16:38:22;;;;;;;;;;;;;;;;;;5035540;28;19932;-80
2022/07/31 16:40:48;;;;;;;;;;;;;;;;;;5034961;28;19926;-80
2022/07/31 16:43:14;;;;;;;;;;;;;;;;;;5084613;28;19925;-80
2022/07/31 16:45:40;;;;;;;;;;;;;;;;;;5035326;28;19929;-80
2022/07/31 16:48:06;;;;;;;;;;;;;;;;;;5052886;28;20367;-80
2022/07/31 16:50:32;;;;;;;;;;;;;;;;;;5035191;28;19932;-79
2022/07/31 16:52:58;;;;;;;;;;;;;;;;;;5034845;28;20295;-80
2022/07/31 16:55:24;;;;;;;;;;;;;;;;;;5035206;28;20410;-80
2022/07/31 16:57:50;;;;;;;;;;;;;;;;;;5051944;28;19932;-84